Time;durP1;ratioP1;P1;durP2;ratioP2;P2;SDS_P1;SDS_P2;PMS_P1;PMS_P2;Temp;Humidity;BMP_temperature;BMP_pressure;BME280_temperature;BME280_humidity;BME280_pressure;Samples;Min_cycle;Max_cycle;Signal;HPM_P1;HPM_P2
2023/04/29 00:01:12;;;;;;;54.92;27.33;;;9.70;99.90;;;;;;5112220;28;20505;-58
2023/04/29 00:03:38;;;;;;;51.58;27.63;;;9.60;99.90;;;;;;5112065;28;20036;-57
2023/04/29 00:06:04;;;;;;;37.63;26.38;;;9.60;99.90;;;;;;5112248;28;20123;-57
2023/04/29 00:08:30;;;;;;;44.15;25.42;;;9.60;99.90;;;;;;5112301;28;20039;-58
2023/04/29 00:10:55;;;;;;;40.17;23.92;;;9.60;99.90;;;;;;5112038;28;20084;-57
2023/04/29 00:13:21;;;;;;;38.38;24.10;;;9.60;99.90;;;;;;5112209;28;20040;-58
2023/04/29 00:15:47;;;;;;;42.67;23.63;;;9.60;99.90;;;;;;5112070;28;20039;-58
2023/04/29 00:18:13;;;;;;;34.40;22.30;;;9.50;99.90;;;;;;5110731;28;20048;-58
2023/04/29 00:20:38;;;;;;;32.65;20.85;;;9.60;99.90;;;;;;5111898;28;20067;-58
2023/04/29 00:23:05;;;;;;;42.33;22.85;;;9.60;99.90;;;;;;5110779;28;20500;-57
2023/04/29 00:25:31;;;;;;;36.88;23.55;;;9.60;99.90;;;;;;5111853;28;20078;-58
2023/04/29 00:28:00;;;;;;;35.35;21.45;;;9.70;99.90;;;;;;5112193;28;20071;-57
2023/04/29 00:30:27;;;;;;;38.15;20.55;;;9.60;99.90;;;;;;5111957;28;20043;-57
2023/04/29 00:32:54;;;;;;;35.25;22.38;;;9.50;99.90;;;;;;5111791;28;20129;-57
2023/04/29 00:35:20;;;;;;;33.92;19.45;;;9.50;99.90;;;;;;5111890;28;20596;-57
2023/04/29 00:37:46;;;;;;;31.35;19.95;;;9.50;99.90;;;;;;5111337;28;20060;-57
2023/04/29 00:40:15;;;;;;;44.55;22.75;;;9.50;99.90;;;;;;5111883;28;20050;-58
2023/04/29 00:42:41;;;;;;;34.90;19.98;;;9.40;99.90;;;;;;5111688;28;20044;-58
2023/04/29 00:45:10;;;;;;;31.98;19.20;;;9.50;99.90;;;;;;5111657;28;20482;-58
2023/04/29 00:47:37;;;;;;;35.80;19.52;;;9.50;99.90;;;;;;5111695;28;20036;-58
2023/04/29 00:50:04;;;;;;;32.67;19.58;;;9.40;99.90;;;;;;5111573;28;20158;-57
2023/04/29 00:52:30;;;;;;;36.95;18.75;;;9.50;99.90;;;;;;5115836;27;20473;-57
2023/04/29 00:54:56;;;;;;;36.15;18.88;;;9.30;99.90;;;;;;5136002;27;20035;-57
2023/04/29 00:57:22;;;;;;;30.75;18.50;;;9.30;99.90;;;;;;5135912;27;20164;-57
2023/04/29 00:59:51;;;;;;;31.73;17.58;;;9.50;99.90;;;;;;5135707;27;20114;-57
2023/04/29 01:02:18;;;;;;;24.75;17.45;;;9.40;99.90;;;;;;5135828;27;20132;-58
2023/04/29 01:04:43;;;;;;;30.73;18.55;;;9.40;99.90;;;;;;5135789;27;20122;-57
2023/04/29 01:07:17;;;;;;;34.50;18.67;;;9.40;99.90;;;;;;5141024;27;20105;-57
2023/04/29 01:09:57;;;;;;;29.33;17.85;;;9.50;99.90;;;;;;5156734;27;20046;-58
2023/04/29 01:12:49;;;;;;;27.35;18.80;;;9.30;99.90;;;;;;5156324;27;20042;-57
2023/04/29 01:15:22;;;;;;;24.88;16.25;;;9.40;99.90;;;;;;5052034;28;20045;-58
2023/04/29 01:17:55;;;;;;;25.45;16.25;;;9.40;99.90;;;;;;5052216;28;20049;-57
2023/04/29 01:20:23;;;;;;;27.15;16.58;;;9.30;99.90;;;;;;5052031;28;20067;-57
2023/04/29 01:22:48;;;;;;;30.75;17.10;;;9.40;99.90;;;;;;5052105;28;20033;-58
2023/04/29 01:25:14;;;;;;;26.40;17.38;;;9.40;99.90;;;;;;5051897;28;20040;-58
2023/04/29 01:27:51;;;;;;;27.10;17.77;;;9.40;99.90;;;;;;5052048;28;20045;-57
2023/04/29 01:30:37;;;;;;;28.17;16.73;;;9.30;99.90;;;;;;5051903;28;20488;-57
2023/04/29 01:33:22;;;;;;;29.70;18.70;;;9.30;99.90;;;;;;5051707;28;20500;-57
2023/04/29 01:36:26;;;;;;;27.13;16.92;;;9.30;99.90;;;;;;5051828;28;20033;-57
2023/04/29 01:39:23;;;;;;;26.65;17.17;;;9.30;99.90;;;;;;4992967;28;20058;-57
2023/04/29 01:42:19;;;;;;;31.45;17.80;;;9.20;99.90;;;;;;4915377;29;20063;-58
2023/04/29 01:44:48;;;;;;;26.25;17.95;;;9.30;99.90;;;;;;4915767;29;20044;-57
2023/04/29 01:47:14;;;;;;;27.35;18.65;;;9.30;99.90;;;;;;4915356;29;20530;-58
2023/04/29 01:49:40;;;;;;;28.15;18.52;;;9.30;99.90;;;;;;4899968;29;20060;-58
2023/04/29 01:52:06;;;;;;;30.45;18.35;;;9.20;99.90;;;;;;4949074;28;20061;-57
2023/04/29 01:54:35;;;;;;;27.80;18.33;;;9.10;99.90;;;;;;4992282;28;20053;-57
2023/04/29 01:57:01;;;;;;;;;;;9.20;99.90;;;;;;4992633;28;20408;-57
2023/04/29 01:59:26;;;;;;;31.60;18.15;;;9.00;99.90;;;;;;4992349;28;20412;-57
2023/04/29 02:01:52;;;;;;;24.38;18.63;;;9.10;99.90;;;;;;4992005;28;20512;-57
2023/04/29 02:04:18;;;;;;;28.98;18.50;;;9.00;99.90;;;;;;4991275;28;20030;-57
2023/04/29 02:06:43;;;;;;;36.58;20.45;;;9.00;99.90;;;;;;4991920;28;20078;-57
2023/04/29 02:09:09;;;;;;;35.80;19.90;;;8.90;99.90;;;;;;5006561;28;20046;-57
2023/04/29 02:11:35;;;;;;;39.25;19.63;;;8.90;99.90;;;;;;5011362;28;20085;-58
2023/04/29 02:14:01;;;;;;;33.72;20.08;;;8.80;99.90;;;;;;5008810;28;20038;-57
2023/04/29 02:16:26;;;;;;;31.92;19.88;;;8.70;99.90;;;;;;5045206;28;20057;-57
2023/04/29 02:18:52;;;;;;;32.85;19.70;;;8.80;99.90;;;;;;5133721;27;20527;-57
2023/04/29 02:21:18;;;;;;;38.40;20.05;;;8.70;99.90;;;;;;5154922;27;20393;-57
2023/04/29 02:23:43;;;;;;;29.65;19.23;;;8.60;99.90;;;;;;5154849;27;20045;-57
2023/04/29 02:26:09;;;;;;;35.80;20.30;;;8.50;99.90;;;;;;5154731;27;20442;-57
2023/04/29 02:28:35;;;;;;;31.75;19.95;;;8.60;99.90;;;;;;5154985;27;20038;-57
2023/04/29 02:31:01;;;;;;;32.80;20.80;;;8.60;99.90;;;;;;5154892;27;20042;-57
2023/04/29 02:33:27;;;;;;;32.25;19.77;;;8.50;99.90;;;;;;5154697;27;20094;-57
2023/04/29 02:35:53;;;;;;;29.52;19.98;;;8.50;99.90;;;;;;5154672;27;20117;-57
2023/04/29 02:38:18;;;;;;;29.27;19.15;;;8.60;99.90;;;;;;5149546;27;20485;-57
2023/04/29 02:40:45;;;;;;;39.55;21.73;;;8.50;99.90;;;;;;5154783;27;20208;-57
2023/04/29 02:43:11;;;;;;;33.58;21.20;;;8.60;99.90;;;;;;5145743;27;20038;-57
2023/04/29 02:45:38;;;;;;;37.10;20.13;;;8.60;99.90;;;;;;5134041;27;20035;-57
2023/04/29 02:48:05;;;;;;;36.47;21.40;;;8.60;99.90;;;;;;5153334;27;20046;-57
2023/04/29 02:50:30;;;;;;;39.55;20.92;;;8.50;99.90;;;;;;5154542;27;20047;-58
2023/04/29 02:52:56;;;;;;;34.00;21.23;;;8.60;99.90;;;;;;5154277;27;20511;-57
2023/04/29 02:55:22;;;;;;;33.30;21.58;;;8.50;99.90;;;;;;5154473;27;20038;-57
2023/04/29 02:57:48;;;;;;;33.22;20.25;;;8.60;99.90;;;;;;5154337;27;20384;-57
2023/04/29 03:00:14;;;;;;;30.75;20.33;;;8.60;99.90;;;;;;5154025;27;20035;-57
2023/04/29 03:02:40;;;;;;;40.08;22.10;;;8.70;99.90;;;;;;5154294;27;20030;-57
2023/04/29 03:05:05;;;;;;;41.22;21.45;;;8.70;99.90;;;;;;5154182;27;20034;-57
2023/04/29 03:07:31;;;;;;;36.85;21.10;;;8.60;99.90;;;;;;5153861;27;20449;-57
2023/04/29 03:09:57;;;;;;;34.28;21.80;;;8.60;99.90;;;;;;5153958;27;20088;-57
2023/04/29 03:12:23;;;;;;;39.67;21.85;;;8.80;99.90;;;;;;5153936;27;20118;-57
2023/04/29 03:14:49;;;;;;;41.90;22.05;;;8.70;99.90;;;;;;5154147;27;20544;-57
2023/04/29 03:17:14;;;;;;;38.53;20.90;;;8.80;99.90;;;;;;5153892;27;20115;-57
2023/04/29 03:19:40;;;;;;;39.22;22.67;;;8.80;99.90;;;;;;5153671;27;20038;-57
2023/04/29 03:22:09;;;;;;;38.05;20.80;;;8.80;99.90;;;;;;5153779;27;20052;-57
2023/04/29 03:24:34;;;;;;;38.63;20.65;;;8.80;99.90;;;;;;5153779;27;20031;-57
2023/04/29 03:27:00;;;;;;;34.05;21.73;;;8.90;99.90;;;;;;5153618;27;20401;-57
2023/04/29 03:29:29;;;;;;;35.15;21.58;;;8.90;99.90;;;;;;5154197;27;20034;-57
2023/04/29 03:31:55;;;;;;;33.83;22.90;;;8.90;99.90;;;;;;5153770;27;20068;-57
2023/04/29 03:34:21;;;;;;;32.83;20.63;;;9.00;99.90;;;;;;5153724;27;20049;-57
2023/04/29 03:36:47;;;;;;;37.08;19.63;;;9.00;99.90;;;;;;5153357;27;20122;-57
2023/04/29 03:39:12;;;;;;;34.20;19.75;;;9.00;99.90;;;;;;5135741;27;20047;-58
2023/04/29 03:41:38;;;;;;;31.58;19.45;;;8.90;99.90;;;;;;5133047;27;20050;-57
2023/04/29 03:44:04;;;;;;;31.05;17.52;;;9.10;99.90;;;;;;5132968;27;20057;-57
2023/04/29 03:46:30;;;;;;;27.05;15.75;;;9.10;99.90;;;;;;5132992;27;20035;-57
2023/04/29 03:48:56;;;;;;;25.90;16.25;;;8.90;99.90;;;;;;5114429;28;20401;-58
2023/04/29 03:51:23;;;;;;;28.13;15.32;;;8.90;99.90;;;;;;5132688;27;20035;-58
2023/04/29 03:53:49;;;;;;;33.00;16.02;;;8.90;99.90;;;;;;5132904;28;20043;-57
2023/04/29 03:56:15;;;;;;;28.13;14.65;;;9.00;99.90;;;;;;5132492;27;20103;-57
2023/04/29 03:58:40;;;;;;;25.52;15.38;;;9.00;99.90;;;;;;5132696;27;20054;-57
2023/04/29 04:01:06;;;;;;;26.98;15.52;;;9.00;99.90;;;;;;5132733;28;20039;-57
2023/04/29 04:03:32;;;;;;;22.42;15.25;;;9.00;99.90;;;;;;5132506;28;20065;-57
2023/04/29 04:05:57;;;;;;;29.63;15.50;;;9.10;99.90;;;;;;5132572;27;20389;-57
2023/04/29 04:08:23;;;;;;;34.08;15.05;;;9.00;99.90;;;;;;5114363;28;20027;-58
2023/04/29 04:10:49;;;;;;;23.92;14.00;;;9.00;99.90;;;;;;5132651;27;20039;-58
2023/04/29 04:13:14;;;;;;;25.98;14.93;;;9.00;99.90;;;;;;5132677;27;20400;-58
2023/04/29 04:15:41;;;;;;;27.98;14.27;;;8.90;99.90;;;;;;5114351;28;20122;-57
2023/04/29 04:18:07;;;;;;;29.63;14.63;;;9.00;99.90;;;;;;5114098;28;20051;-58
2023/04/29 04:20:36;;;;;;;25.45;14.07;;;9.00;99.90;;;;;;5132371;28;20148;-57
2023/04/29 04:23:01;;;;;;;;;;;9.00;99.90;;;;;;5132846;28;20032;-57
2023/04/29 04:25:28;;;;;;;26.05;14.52;;;9.00;99.90;;;;;;5132486;28;19923;-58
2023/04/29 04:27:53;;;;;;;27.70;15.63;;;9.00;99.90;;;;;;5135455;27;20039;-57
2023/04/29 04:30:19;;;;;;;26.95;15.20;;;9.10;99.90;;;;;;5136418;27;20035;-57
2023/04/29 04:32:45;;;;;;;29.25;15.05;;;9.00;99.90;;;;;;5136644;27;20488;-57
2023/04/29 04:35:11;;;;;;;34.20;16.23;;;9.00;99.90;;;;;;5136203;27;20057;-57
2023/04/29 04:37:37;;;;;;;24.15;13.73;;;9.10;99.90;;;;;;5136496;27;20035;-58
2023/04/29 04:40:03;;;;;;;27.17;14.57;;;9.10;99.90;;;;;;5136457;27;20138;-57
2023/04/29 04:42:29;;;;;;;26.98;14.02;;;9.00;99.90;;;;;;5136378;27;20084;-57
2023/04/29 04:44:56;;;;;;;26.48;13.73;;;9.00;99.90;;;;;;5136180;27;20031;-57
2023/04/29 04:47:22;;;;;;;29.95;14.10;;;9.00;99.90;;;;;;5117828;27;20127;-58
2023/04/29 04:49:48;;;;;;;28.27;13.63;;;9.10;99.90;;;;;;5135981;27;20118;-58
2023/04/29 04:52:14;;;;;;;24.52;13.88;;;9.10;99.90;;;;;;5136366;27;20091;-58
2023/04/29 04:54:40;;;;;;;23.90;12.73;;;9.00;99.90;;;;;;5136087;27;20035;-58
2023/04/29 04:57:06;;;;;;;26.17;13.32;;;9.10;99.90;;;;;;5136065;27;20035;-57
2023/04/29 04:59:32;;;;;;;23.48;14.18;;;9.00;99.90;;;;;;5135935;27;20050;-57
2023/04/29 05:01:58;;;;;;;19.02;11.57;;;9.10;99.90;;;;;;5135798;27;20031;-57
2023/04/29 05:04:23;;;;;;;24.13;12.40;;;9.00;99.90;;;;;;5117484;27;20088;-57
2023/04/29 05:06:49;;;;;;;26.00;13.60;;;9.10;99.90;;;;;;5135787;27;20041;-57
2023/04/29 05:09:15;;;;;;;20.83;12.55;;;9.10;99.90;;;;;;5135554;27;20505;-58
2023/04/29 05:11:41;;;;;;;21.95;12.35;;;9.10;99.90;;;;;;5135606;27;20050;-58
2023/04/29 05:14:06;;;;;;;24.90;12.38;;;9.10;99.90;;;;;;5135648;27;20031;-57
2023/04/29 05:16:32;;;;;;;21.33;11.23;;;9.10;99.90;;;;;;5135178;27;20035;-57
2023/04/29 05:18:58;;;;;;;21.27;11.55;;;9.20;99.90;;;;;;5135554;27;20043;-58
2023/04/29 05:21:23;;;;;;;24.10;12.73;;;9.20;99.90;;;;;;5135908;27;20047;-57
2023/04/29 05:23:49;;;;;;;22.25;12.10;;;9.20;99.90;;;;;;5135576;27;20492;-57
2023/04/29 05:26:15;;;;;;;22.63;12.00;;;9.20;99.90;;;;;;5130848;27;20450;-57
2023/04/29 05:28:40;;;;;;;23.23;11.27;;;9.20;99.90;;;;;;5137494;27;20449;-58
2023/04/29 05:31:06;;;;;;;17.60;11.13;;;9.30;99.90;;;;;;5156505;27;20039;-57
2023/04/29 05:33:31;;;;;;;19.70;12.25;;;9.30;99.90;;;;;;5155800;27;20038;-56
2023/04/29 05:35:57;;;;;;;19.85;11.75;;;9.20;99.90;;;;;;5155946;27;20091;-58
2023/04/29 05:38:27;;;;;;;20.25;11.23;;;9.30;99.90;;;;;;5154485;27;20420;-57
2023/04/29 05:40:54;;;;;;;18.75;11.25;;;9.20;99.90;;;;;;5155665;27;20438;-57
2023/04/29 05:43:20;;;;;;;19.15;10.93;;;9.30;99.90;;;;;;5155553;27;20027;-57
2023/04/29 05:45:46;;;;;;;20.80;11.38;;;9.30;99.90;;;;;;5155802;27;20041;-58
2023/04/29 05:48:12;;;;;;;16.30;10.30;;;9.30;99.90;;;;;;5155559;27;20039;-57
2023/04/29 05:50:37;;;;;;;18.75;10.95;;;9.30;99.90;;;;;;5155481;27;20049;-57
2023/04/29 05:53:03;;;;;;;32.58;12.43;;;9.30;99.90;;;;;;5136983;27;20079;-57
2023/04/29 05:55:29;;;;;;;19.33;11.88;;;9.40;99.90;;;;;;5137051;27;20084;-57
2023/04/29 05:57:55;;;;;;;26.50;11.73;;;9.40;99.90;;;;;;5136929;27;20050;-58
2023/04/29 06:00:21;;;;;;;19.67;11.70;;;9.40;99.90;;;;;;5155376;27;20050;-57
2023/04/29 06:02:47;;;;;;;22.67;11.20;;;9.60;99.90;;;;;;5155333;27;20035;-57
2023/04/29 06:05:13;;;;;;;19.83;11.98;;;9.50;99.90;;;;;;5155409;27;20080;-57
2023/04/29 06:07:40;;;;;;;20.90;11.40;;;9.50;99.90;;;;;;5136960;27;20081;-57
2023/04/29 06:10:07;;;;;;;18.50;11.40;;;9.60;99.90;;;;;;5136572;27;20043;-57
2023/04/29 06:12:32;;;;;;;20.70;10.82;;;9.60;99.90;;;;;;5136837;27;20042;-57
2023/04/29 06:14:58;;;;;;;19.45;11.77;;;9.70;99.90;;;;;;5155101;27;20053;-57
2023/04/29 06:17:23;;;;;;;19.13;11.30;;;9.60;99.90;;;;;;5155105;27;20046;-57
2023/04/29 06:19:49;;;;;;;17.40;10.18;;;9.80;99.90;;;;;;5155280;27;20031;-57
2023/04/29 06:22:15;;;;;;;18.00;10.23;;;9.90;99.90;;;;;;5155033;27;20547;-57
2023/04/29 06:24:40;;;;;;;16.85;10.00;;;10.10;99.90;;;;;;5136392;27;20050;-57
2023/04/29 06:27:06;;;;;;;18.50;10.70;;;10.30;99.90;;;;;;5155074;27;20049;-58
2023/04/29 06:29:32;;;;;;;16.13;10.35;;;10.70;99.90;;;;;;5154653;27;20047;-57
2023/04/29 06:31:58;;;;;;;15.10;9.18;;;10.90;99.90;;;;;;5155176;27;20054;-57
2023/04/29 06:34:23;;;;;;;13.98;8.43;;;11.10;99.90;;;;;;5136194;27;20381;-57
2023/04/29 06:36:49;;;;;;;14.75;9.50;;;11.20;99.90;;;;;;5136194;27;20074;-57
2023/04/29 06:39:15;;;;;;;16.33;8.77;;;11.30;99.90;;;;;;5141844;27;20074;-57
2023/04/29 06:41:41;;;;;;;15.77;9.27;;;11.40;99.90;;;;;;5133798;27;20489;-58
2023/04/29 06:44:07;;;;;;;14.63;9.65;;;11.80;99.90;;;;;;5133529;27;20039;-58
2023/04/29 06:46:33;;;;;;;16.45;8.70;;;12.00;99.90;;;;;;5115621;27;20035;-57
2023/04/29 06:48:58;;;;;;;14.75;9.02;;;12.10;99.90;;;;;;5133771;27;20072;-58
2023/04/29 06:51:24;;;;;;;18.20;9.27;;;12.30;99.90;;;;;;5114787;27;20043;-58
2023/04/29 06:53:50;;;;;;;11.60;8.20;;;12.40;99.90;;;;;;5133876;27;20042;-57
2023/04/29 06:56:15;;;;;;;14.10;9.07;;;12.70;99.90;;;;;;5133629;27;20043;-58
2023/04/29 06:58:41;;;;;;;12.52;8.07;;;12.70;99.90;;;;;;5133809;27;20073;-58
2023/04/29 07:01:08;;;;;;;14.88;9.00;;;12.90;99.90;;;;;;5133534;27;20119;-58
2023/04/29 07:03:33;;;;;;;13.98;8.27;;;13.00;99.90;;;;;;5115209;27;20469;-57
2023/04/29 07:05:59;;;;;;;14.32;8.50;;;13.20;99.90;;;;;;5114856;27;20043;-57
2023/04/29 07:08:25;;;;;;;14.52;8.40;;;13.40;99.90;;;;;;5138043;27;20105;-57
2023/04/29 07:10:55;;;;;;;11.98;8.13;;;13.50;99.90;;;;;;5154072;27;20122;-58
2023/04/29 07:13:21;;;;;;;16.98;8.32;;;13.70;99.90;;;;;;5154044;27;20090;-58
2023/04/29 07:15:47;;;;;;;11.90;7.05;;;13.80;99.90;;;;;;5154183;27;20110;-58
2023/04/29 07:18:13;;;;;;;12.68;7.00;;;13.80;99.90;;;;;;5153931;27;20121;-58
2023/04/29 07:20:38;;;;;;;14.68;7.88;;;14.10;99.90;;;;;;5153970;27;20042;-58
2023/04/29 07:23:04;;;;;;;16.23;6.97;;;14.20;99.90;;;;;;5153710;27;20034;-58
2023/04/29 07:25:30;;;;;;;13.32;6.68;;;14.40;99.90;;;;;;5135436;27;20031;-58
2023/04/29 07:27:56;;;;;;;12.77;6.15;;;14.70;99.90;;;;;;5153747;27;20031;-58
2023/04/29 07:30:22;;;;;;;10.55;6.32;;;14.70;99.90;;;;;;5153971;27;20038;-58
2023/04/29 07:32:48;;;;;;;9.73;6.95;;;14.90;99.90;;;;;;5153783;27;20046;-57
2023/04/29 07:35:13;;;;;;;8.55;5.50;;;14.80;99.90;;;;;;5153956;27;20421;-58
2023/04/29 07:37:40;;;;;;;13.57;5.75;;;14.80;99.90;;;;;;5139963;27;20035;-58
2023/04/29 07:40:06;;;;;;;12.25;5.60;;;15.10;99.90;;;;;;5132936;27;20047;-58
2023/04/29 07:42:32;;;;;;;12.80;5.63;;;15.30;99.90;;;;;;5132877;27;20080;-58
2023/04/29 07:44:57;;;;;;;12.43;5.57;;;15.60;99.90;;;;;;5136110;27;20034;-58
2023/04/29 07:47:23;;;;;;;10.32;4.88;;;15.60;99.90;;;;;;5153688;27;20103;-58
2023/04/29 07:49:49;;;;;;;12.88;5.57;;;15.70;99.90;;;;;;5154115;27;20068;-58
2023/04/29 07:52:14;;;;;;;12.07;5.65;;;15.80;99.90;;;;;;5153703;27;20596;-58
2023/04/29 07:54:40;;;;;;;9.43;5.25;;;15.90;99.90;;;;;;5153557;27;20034;-58
2023/04/29 07:57:05;;;;;;;10.95;4.70;;;15.90;99.90;;;;;;5153479;27;20552;-58
2023/04/29 07:59:31;;;;;;;11.02;5.18;;;15.60;99.90;;;;;;5123162;28;20047;-58
2023/04/29 08:01:57;;;;;;;8.85;5.43;;;15.80;99.90;;;;;;5130321;27;20035;-58
2023/04/29 08:04:23;;;;;;;12.80;5.50;;;15.90;99.90;;;;;;5139920;27;20114;-58
2023/04/29 08:06:49;;;;;;;11.13;5.70;;;15.80;99.90;;;;;;5150901;27;20030;-58
2023/04/29 08:09:15;;;;;;;9.52;5.55;;;15.80;99.90;;;;;;5157939;27;20396;-58
2023/04/29 08:11:42;;;;;;;8.68;5.03;;;16.00;99.90;;;;;;5156924;27;20034;-58
2023/04/29 08:14:11;;;;;;;7.95;5.32;;;16.30;99.90;;;;;;5153263;27;20035;-60
2023/04/29 08:16:36;;;;;;;;;;;16.70;99.90;;;;;;5140436;27;20042;-61
2023/04/29 08:19:02;;;;;;;8.95;5.13;;;16.90;99.90;;;;;;5158309;27;19974;-58
2023/04/29 08:21:27;;;;;;;8.35;4.18;;;17.00;99.90;;;;;;5158274;27;20493;-60
2023/04/29 08:23:54;;;;;;;11.88;4.82;;;17.20;99.90;;;;;;5158579;27;20034;-59
2023/04/29 08:26:21;;;;;;;12.75;5.70;;;17.30;99.90;;;;;;5157356;27;20079;-59
2023/04/29 08:28:47;;;;;;;11.65;5.65;;;17.30;99.90;;;;;;5157916;27;20465;-59
2023/04/29 08:31:20;;;;;;;9.20;5.38;;;17.30;99.90;;;;;;5158046;27;20063;-61
2023/04/29 08:33:46;;;;;;;10.10;4.95;;;17.40;99.90;;;;;;5157792;27;20147;-58
2023/04/29 08:36:12;;;;;;;12.68;5.38;;;17.70;99.90;;;;;;5157425;27;20126;-58
2023/04/29 08:38:38;;;;;;;8.50;4.70;;;17.30;99.90;;;;;;5138878;27;20122;-58
2023/04/29 08:41:06;;;;;;;10.98;5.20;;;17.20;99.90;;;;;;5136905;27;20549;-58
2023/04/29 08:43:35;;;;;;;10.52;5.03;;;17.30;99.90;;;;;;5136808;27;20035;-61
2023/04/29 08:46:02;;;;;;;8.27;4.90;;;17.70;99.90;;;;;;5156300;27;20087;-59
2023/04/29 08:48:28;;;;;;;8.80;4.97;;;17.70;99.90;;;;;;5138518;27;20042;-61
2023/04/29 08:50:57;;;;;;;12.27;4.47;;;17.80;99.90;;;;;;5157832;27;20034;-59
2023/04/29 08:53:22;;;;;;;8.05;3.97;;;18.10;99.90;;;;;;5156826;27;20472;-58
2023/04/29 08:55:48;;;;;;;16.58;5.00;;;18.00;99.90;;;;;;5138336;27;20041;-60
2023/04/29 08:58:15;;;;;;;7.82;4.15;;;18.10;99.90;;;;;;5156977;27;20115;-58
2023/04/29 09:00:44;;;;;;;6.32;4.50;;;18.00;99.90;;;;;;5157232;27;20069;-59
2023/04/29 09:03:19;;;;;;;10.07;4.55;;;18.20;99.90;;;;;;5157129;27;20034;-61
2023/04/29 09:05:49;;;;;;;8.75;3.92;;;18.40;99.90;;;;;;5157709;27;20122;-60
2023/04/29 09:08:15;;;;;;;6.65;4.43;;;18.00;99.90;;;;;;5157255;27;20042;-61
2023/04/29 09:10:42;;;;;;;9.05;4.28;;;18.20;99.90;;;;;;5157334;27;20046;-61
2023/04/29 09:13:08;;;;;;;9.10;4.45;;;18.20;99.90;;;;;;5157053;27;20107;-61
2023/04/29 09:15:39;;;;;;;7.45;3.95;;;18.50;99.90;;;;;;5144068;27;20047;-61
2023/04/29 09:18:05;;;;;;;6.70;3.92;;;18.80;99.90;;;;;;5136421;27;20404;-61
2023/04/29 09:20:30;;;;;;;7.00;5.03;;;18.80;99.90;;;;;;5122265;27;20043;-61
2023/04/29 09:23:05;;;;;;;8.15;5.15;;;18.40;99.90;;;;;;5157454;27;20034;-62
2023/04/29 09:25:31;;;;;;;13.65;5.25;;;18.70;99.90;;;;;;5157082;27;20163;-61
2023/04/29 09:27:57;;;;;;;5.85;3.85;;;19.00;99.90;;;;;;5157170;27;20091;-61
2023/04/29 09:30:23;;;;;;;7.45;4.45;;;19.10;99.90;;;;;;5157242;27;20063;-61
2023/04/29 09:33:08;;;;;;;9.05;4.47;;;19.00;99.90;;;;;;5156860;27;20038;-61
2023/04/29 09:35:34;;;;;;;7.43;5.45;;;19.20;99.90;;;;;;5156588;27;20046;-61
2023/04/29 09:38:08;;;;;;;9.32;5.15;;;19.10;99.90;;;;;;5134701;27;20047;-61
2023/04/29 09:40:35;;;;;;;6.60;4.28;;;19.20;99.90;;;;;;5115598;27;20048;-61
2023/04/29 09:43:01;;;;;;;8.38;4.57;;;19.10;99.90;;;;;;5115184;28;20048;-61
2023/04/29 09:45:36;;;;;;;9.68;4.55;;;19.00;99.90;;;;;;5124482;27;20055;-62
2023/04/29 09:48:07;;;;;;;10.23;4.20;;;19.10;99.90;;;;;;5136114;27;20126;-61
2023/04/29 09:50:37;;;;;;;9.23;4.60;;;19.30;99.90;;;;;;5130862;27;20043;-61
2023/04/29 09:53:03;;;;;;;6.13;4.80;;;18.70;99.90;;;;;;5135719;27;20042;-61
2023/04/29 09:55:29;;;;;;;10.27;4.50;;;18.90;99.90;;;;;;5108862;28;20047;-61
2023/04/29 09:57:55;;;;;;;5.18;4.13;;;18.80;99.90;;;;;;5115184;28;20065;-61
2023/04/29 10:00:21;;;;;;;11.25;4.63;;;18.90;99.90;;;;;;5115051;28;20039;-61
2023/04/29 10:02:48;;;;;;;7.28;4.35;;;18.80;99.90;;;;;;5114965;28;20035;-61
2023/04/29 10:05:15;;;;;;;8.48;4.43;;;18.70;99.90;;;;;;5115024;28;20043;-61
2023/04/29 10:07:41;;;;;;;9.10;5.05;;;18.50;99.90;;;;;;5115174;28;20039;-61
2023/04/29 10:10:10;;;;;;;12.52;5.18;;;18.90;99.90;;;;;;5115036;28;20102;-61
2023/04/29 10:12:37;;;;;;;12.43;5.40;;;19.10;99.90;;;;;;5114440;28;20340;-60
2023/04/29 10:15:21;;;;;;;10.77;5.85;;;19.00;99.90;;;;;;5113615;28;20532;-61
2023/04/29 10:18:17;;;;;;;10.55;6.30;;;19.30;99.90;;;;;;5114487;28;20051;-61
2023/04/29 10:20:46;;;;;;;14.98;5.82;;;19.10;99.90;;;;;;5024715;28;20050;-61
2023/04/29 10:23:16;;;;;;;8.25;4.97;;;19.50;99.90;;;;;;5031364;28;20072;-60
2023/04/29 10:25:43;;;;;;;13.88;5.63;;;19.60;99.90;;;;;;5030913;28;20060;-61
2023/04/29 10:28:15;;;;;;;6.72;4.32;;;19.80;99.90;;;;;;5031642;28;20068;-61
2023/04/29 10:30:45;;;;;;;9.25;5.13;;;19.90;99.90;;;;;;5014732;28;20518;-61
2023/04/29 10:33:14;;;;;;;9.80;4.63;;;19.90;99.90;;;;;;5031385;28;20136;-61
2023/04/29 10:35:43;;;;;;;8.82;5.13;;;19.80;99.90;;;;;;5031338;28;20041;-60
2023/04/29 10:38:35;;;;;;;8.55;3.67;;;19.50;99.90;;;;;;5010154;28;20456;-60
2023/04/29 10:41:08;;;;;;;6.13;2.90;;;19.70;99.50;;;;;;5011046;28;20088;-61
2023/04/29 10:43:33;;;;;;;6.47;3.08;;;19.50;99.30;;;;;;4994809;28;20104;-60
2023/04/29 10:46:18;;;;;;;9.10;2.80;;;19.50;97.70;;;;;;5022255;28;20468;-61
2023/04/29 10:48:45;;;;;;;4.60;3.03;;;19.20;99.10;;;;;;5030889;28;20049;-60
2023/04/29 10:51:11;;;;;;;5.43;2.13;;;19.40;99.00;;;;;;5030680;28;20128;-59
2023/04/29 10:54:16;;;;;;;6.68;2.22;;;19.70;97.80;;;;;;5030757;28;20120;-62
2023/04/29 10:56:42;;;;;;;4.70;1.92;;;19.90;98.30;;;;;;5038313;28;20053;-61
2023/04/29 10:59:18;;;;;;;3.30;1.63;;;20.00;97.70;;;;;;5095179;28;20040;-62
2023/04/29 11:01:52;;;;;;;3.90;2.00;;;19.90;96.00;;;;;;5108545;28;20123;-62
2023/04/29 11:04:20;;;;;;;3.03;2.03;;;20.00;98.10;;;;;;5113395;28;20100;-61
2023/04/29 11:07:00;;;;;;;4.03;1.73;;;20.00;97.40;;;;;;5113207;28;20377;-62
2023/04/29 11:09:26;;;;;;;3.17;1.95;;;20.10;96.40;;;;;;5113100;28;20067;-61
2023/04/29 11:11:57;;;;;;;2.58;1.60;;;20.10;96.60;;;;;;5112866;28;20119;-62
2023/04/29 11:14:37;;;;;;;2.80;1.52;;;20.00;95.90;;;;;;5113246;28;20386;-61
2023/04/29 11:17:08;;;;;;;5.88;2.35;;;20.40;95.10;;;;;;5113145;28;20040;-61
2023/04/29 11:19:35;;;;;;;2.92;2.10;;;20.40;96.40;;;;;;5094839;28;20040;-61
2023/04/29 11:22:10;;;;;;;5.38;1.50;;;20.50;96.60;;;;;;5113104;28;20039;-62
2023/04/29 11:24:46;;;;;;;4.50;2.13;;;20.50;96.20;;;;;;5113080;28;20032;-61
2023/04/29 11:27:14;;;;;;;6.95;2.88;;;20.10;96.50;;;;;;5112723;28;20078;-62
2023/04/29 11:29:40;;;;;;;4.30;2.22;;;20.30;97.10;;;;;;5113061;28;20071;-61
2023/04/29 11:32:07;;;;;;;3.67;2.28;;;20.20;96.30;;;;;;5094246;28;20044;-62
2023/04/29 11:34:33;;;;;;;6.13;3.08;;;20.40;97.00;;;;;;5112389;28;20128;-61
2023/04/29 11:36:59;;;;;;;2.92;1.80;;;20.20;97.60;;;;;;5111641;28;20071;-61
2023/04/29 11:39:26;;;;;;;6.38;1.88;;;20.40;98.20;;;;;;5112323;28;20059;-62
2023/04/29 11:42:02;;;;;;;5.53;3.00;;;20.50;97.60;;;;;;5112446;28;20040;-61
2023/04/29 11:44:27;;;;;;;8.73;2.65;;;19.90;98.20;;;;;;5112606;28;20035;-61
2023/04/29 11:47:00;;;;;;;4.30;2.13;;;19.90;97.60;;;;;;5112205;28;20043;-61
2023/04/29 11:49:32;;;;;;;3.70;2.30;;;20.00;98.60;;;;;;5112444;28;20035;-62
2023/04/29 11:51:59;;;;;;;4.50;2.63;;;20.20;97.40;;;;;;5110659;28;20032;-62
2023/04/29 11:54:28;;;;;;;4.75;2.85;;;20.10;98.50;;;;;;5112048;28;20043;-62
2023/04/29 11:56:55;;;;;;;8.65;2.30;;;19.80;98.50;;;;;;5066220;28;20039;-61
2023/04/29 11:59:21;;;;;;;3.65;2.15;;;19.80;98.50;;;;;;5112563;28;20046;-61
2023/04/29 12:01:50;;;;;;;6.90;3.08;;;20.00;98.60;;;;;;5108128;28;20051;-61
2023/04/29 12:04:16;;;;;;;7.93;1.70;;;19.90;98.30;;;;;;5102847;28;20089;-61
2023/04/29 12:06:42;;;;;;;3.85;1.60;;;19.90;97.50;;;;;;5101376;28;20039;-61
2023/04/29 12:09:08;;;;;;;2.63;1.55;;;20.00;98.20;;;;;;5096468;28;20082;-61
2023/04/29 12:11:36;;;;;;;4.25;1.75;;;20.00;97.20;;;;;;5076271;28;20421;-62
2023/04/29 12:14:04;;;;;;;3.90;1.90;;;20.00;97.20;;;;;;5105226;28;20035;-61
2023/04/29 12:16:31;;;;;;;4.18;1.83;;;19.80;96.80;;;;;;5092312;28;20790;-62
2023/04/29 12:18:57;;;;;;;3.15;1.58;;;19.90;97.20;;;;;;5102316;28;20075;-61
2023/04/29 12:21:23;;;;;;;10.48;2.13;;;20.00;98.00;;;;;;5099089;28;20110;-61
2023/04/29 12:23:50;;;;;;;4.22;1.80;;;20.00;97.10;;;;;;5103692;28;20135;-61
2023/04/29 12:26:18;;;;;;;3.47;1.73;;;20.00;98.60;;;;;;5112241;28;20035;-62
2023/04/29 12:28:44;;;;;;;5.38;1.67;;;20.20;98.00;;;;;;5112281;28;20071;-61
2023/04/29 12:31:12;;;;;;;5.35;1.90;;;20.40;98.00;;;;;;5112121;28;20035;-61
2023/04/29 12:33:41;;;;;;;;;;;20.40;98.60;;;;;;5089264;28;20107;-61
2023/04/29 12:36:16;;;;;;;4.35;1.52;;;20.10;96.40;;;;;;5092135;28;20342;-61
2023/04/29 12:38:42;;;;;;;1.52;0.93;;;20.10;98.20;;;;;;5103074;28;20048;-61
2023/04/29 12:41:08;;;;;;;2.53;1.42;;;20.00;96.90;;;;;;5116642;28;20451;-62
2023/04/29 12:43:35;;;;;;;3.22;1.45;;;20.00;96.70;;;;;;5125709;28;20069;-61